createdAt,value
2023-05-15T00:01:29.144Z,7.43
2023-05-15T00:06:32.401Z,7.28
2023-05-15T00:11:36.112Z,7.07
2023-05-15T00:16:41.308Z,6.80
2023-05-15T00:21:45.126Z,7.43
2023-05-15T00:26:48.397Z,6.70
2023-05-15T00:31:53.476Z,7.50
2023-05-15T00:36:57.170Z,7.25
2023-05-15T00:42:02.368Z,7.50
2023-05-15T00:52:12.339Z,7.60
2023-05-15T00:57:17.048Z,7.07
2023-05-15T01:02:21.744Z,7.83
2023-05-15T01:07:25.164Z,7.93
2023-05-15T01:12:31.004Z,7.28
2023-05-15T01:17:35.725Z,7.13
2023-05-15T01:23:07.227Z,7.73
2023-05-15T01:28:15.451Z,8.32
2023-05-15T01:33:24.090Z,6.70
2023-05-15T01:38:35.911Z,6.85
2023-05-15T01:43:43.699Z,6.72
2023-05-15T01:48:49.353Z,6.60
2023-05-15T01:59:00.215Z,7.10
2023-05-15T02:04:05.906Z,8.90
2023-05-15T02:09:10.600Z,8.68
2023-05-15T02:14:17.368Z,7.73
2023-05-15T02:19:20.723Z,8.95
2023-05-15T02:24:24.425Z,7.80
2023-05-15T02:29:36.627Z,7.93
2023-05-15T02:34:48.761Z,7.35
2023-05-15T02:39:54.653Z,7.50
2023-05-15T02:45:00.141Z,8.05
2023-05-15T02:50:04.185Z,8.10
2023-05-15T02:55:10.665Z,8.80
2023-05-15T03:00:17.674Z,9.13
2023-05-15T03:05:21.384Z,8.73
2023-05-15T03:10:24.767Z,9.52
2023-05-15T03:15:29.375Z,8.88
2023-05-15T03:20:32.644Z,9.67
2023-05-15T03:25:35.867Z,8.13
2023-05-15T03:30:40.453Z,9.05
2023-05-15T03:35:44.728Z,9.65
2023-05-15T03:40:50.231Z,9.50
2023-05-15T03:45:55.766Z,10.35
2023-05-15T03:51:00.433Z,9.70
2023-05-15T03:56:07.465Z,9.55
2023-05-15T04:01:12.613Z,9.57
2023-05-15T04:06:16.286Z,9.73
2023-05-15T04:11:19.522Z,10.93
2023-05-15T04:16:24.108Z,10.30
2023-05-15T04:21:27.337Z,9.80
2023-05-15T04:26:34.395Z,9.73
2023-05-15T04:31:39.620Z,11.18
2023-05-15T04:36:43.313Z,8.90
2023-05-15T04:41:46.699Z,9.02
2023-05-15T04:46:51.292Z,8.65
2023-05-15T04:51:54.556Z,9.20
2023-05-15T04:56:57.872Z,8.07
2023-05-15T05:02:03.320Z,8.43
2023-05-15T05:12:11.833Z,10.32
2023-05-15T05:17:16.964Z,9.18
2023-05-15T05:22:20.630Z,9.75
2023-05-15T05:27:23.868Z,9.55
2023-05-15T05:32:28.614Z,8.57
2023-05-15T05:37:31.874Z,8.67
2023-05-15T05:42:35.129Z,9.05
2023-05-15T05:47:39.738Z,8.70
2023-05-15T05:52:43.151Z,10.67
2023-05-15T05:57:46.388Z,9.65
2023-05-15T06:02:53.086Z,8.25
2023-05-15T06:07:57.024Z,8.82
2023-05-15T06:13:00.353Z,8.73
2023-05-15T06:18:07.169Z,9.02
2023-05-15T06:28:13.784Z,9.00
2023-05-15T06:33:18.528Z,8.85
2023-05-15T06:38:21.771Z,9.90
2023-05-15T06:43:25.020Z,8.90
2023-05-15T06:48:29.646Z,9.02
2023-05-15T06:53:33.252Z,8.15
2023-05-15T06:58:36.460Z,9.43
2023-05-15T07:03:42.958Z,9.77
2023-05-15T07:08:46.657Z,8.75
2023-05-15T07:13:50.799Z,9.88
2023-05-15T07:18:56.399Z,9.17
2023-05-15T07:23:59.691Z,10.13
2023-05-15T07:29:04.174Z,9.80
2023-05-15T07:34:09.082Z,9.63
2023-05-15T07:39:12.499Z,10.40
2023-05-15T07:44:15.768Z,10.05
2023-05-15T07:49:20.310Z,9.73
2023-05-15T07:54:23.454Z,9.00
2023-05-15T07:59:27.269Z,9.02
2023-05-15T08:04:32.379Z,9.63
2023-05-15T08:09:35.632Z,8.23
2023-05-15T08:14:38.946Z,6.97
2023-05-15T08:19:43.768Z,7.90
2023-05-15T08:24:47.063Z,9.35
2023-05-15T08:29:50.339Z,5.82
2023-05-15T08:34:54.935Z,5.95
2023-05-15T08:39:58.112Z,4.67
2023-05-15T08:45:02.166Z,3.90
2023-05-15T08:50:10.972Z,4.53
2023-05-15T08:55:15.397Z,3.80
2023-05-15T09:00:21.065Z,3.20
2023-05-15T09:05:25.863Z,4.00
2023-05-15T09:10:31.022Z,3.05
2023-05-15T09:15:34.527Z,3.13
2023-05-15T09:20:39.886Z,4.07
2023-05-15T09:25:45.070Z,4.88
2023-05-15T09:35:53.712Z,3.47
2023-05-15T09:41:04.322Z,3.40
2023-05-15T09:46:09.614Z,3.60
2023-05-15T09:51:19.055Z,3.47
2023-05-15T09:56:23.442Z,3.85
2023-05-15T10:01:28.067Z,4.17
2023-05-15T10:06:38.606Z,3.50
2023-05-15T10:11:44.822Z,4.10
2023-05-15T10:16:48.581Z,9.05
2023-05-15T10:21:57.543Z,4.72
2023-05-15T10:27:02.132Z,4.47
2023-05-15T10:32:06.531Z,3.88
2023-05-15T10:37:12.493Z,3.23
2023-05-15T10:42:17.217Z,3.30
2023-05-15T10:47:21.017Z,3.72
2023-05-15T10:52:26.133Z,2.85
2023-05-15T11:02:40.198Z,2.75
2023-05-15T11:07:45.386Z,3.35
2023-05-15T11:12:59.522Z,2.75
2023-05-15T11:18:08.228Z,3.90
2023-05-15T11:23:13.328Z,4.28
2023-05-15T11:28:23.693Z,4.57
2023-05-15T11:33:31.745Z,4.47
2023-05-15T11:38:41.374Z,4.57
2023-05-15T11:43:45.068Z,4.15
2023-05-15T11:48:49.673Z,4.50
2023-05-15T11:53:58.143Z,5.68
2023-05-15T11:59:02.789Z,4.70
2023-05-15T12:04:14.323Z,5.00
2023-05-15T12:09:23.028Z,4.13
2023-05-15T12:14:30.191Z,4.82
2023-05-15T12:19:35.340Z,5.20
2023-05-15T12:24:44.759Z,4.43
2023-05-15T12:29:48.600Z,4.45
2023-05-15T12:34:52.047Z,4.30
2023-05-15T12:39:58.708Z,4.38
2023-05-15T12:45:02.420Z,3.83
2023-05-15T12:50:14.698Z,3.67
2023-05-15T12:55:23.778Z,4.10
2023-05-15T13:00:27.897Z,3.25
2023-05-15T13:05:34.701Z,3.37
2023-05-15T13:10:39.961Z,3.75
2023-05-15T13:15:45.063Z,3.20
2023-05-15T13:20:50.613Z,3.67
2023-05-15T13:25:55.787Z,3.88
2023-05-15T13:30:59.558Z,3.97
2023-05-15T13:36:03.271Z,3.95
2023-05-15T13:41:08.166Z,3.83
2023-05-15T13:46:11.664Z,3.38
2023-05-15T13:51:15.284Z,3.95
2023-05-15T13:56:20.245Z,4.40
2023-05-15T14:01:23.870Z,4.22
2023-05-15T14:06:28.000Z,3.38
2023-05-15T14:11:34.998Z,3.50
2023-05-15T14:16:38.654Z,3.50
2023-05-15T14:21:42.340Z,4.03
2023-05-15T14:26:47.473Z,3.25
2023-05-15T14:31:51.097Z,3.15
2023-05-15T14:36:54.714Z,3.30
2023-05-15T14:41:59.532Z,2.50
2023-05-15T14:47:10.359Z,2.70
2023-05-15T14:52:13.899Z,2.72
2023-05-15T14:57:20.760Z,3.08
2023-05-15T15:02:24.297Z,3.08
2023-05-15T15:07:30.907Z,3.17
2023-05-15T15:12:35.904Z,2.92
2023-05-15T15:17:39.488Z,3.90
2023-05-15T15:22:43.073Z,3.55
2023-05-15T15:27:48.891Z,4.40
2023-05-15T15:32:52.755Z,3.53
2023-05-15T15:37:56.799Z,3.05
2023-05-15T15:43:02.080Z,3.40
2023-05-15T15:48:06.065Z,3.05
2023-05-15T15:53:09.697Z,4.15
2023-05-15T15:58:14.814Z,3.00
2023-05-15T16:08:22.247Z,3.78
2023-05-15T16:13:27.324Z,3.55
2023-05-15T16:18:30.945Z,3.38
2023-05-15T16:23:35.689Z,3.42
2023-05-15T16:28:40.832Z,3.35
2023-05-15T16:38:47.416Z,3.00
2023-05-15T16:43:52.366Z,3.47
2023-05-15T16:54:00.057Z,3.33
2023-05-15T16:59:05.124Z,3.13
2023-05-15T17:04:08.982Z,2.95
2023-05-15T17:09:12.625Z,3.50
2023-05-15T17:14:17.727Z,3.28
2023-05-15T17:24:25.028Z,3.10
2023-05-15T17:29:30.074Z,3.53
2023-05-15T17:39:37.365Z,3.20
2023-05-15T17:44:42.402Z,3.30
2023-05-15T17:54:49.465Z,3.47
2023-05-15T17:59:54.449Z,3.35
2023-05-15T18:10:01.484Z,3.45
2023-05-15T18:15:07.215Z,3.40
2023-05-15T18:20:12.024Z,3.92
2023-05-15T18:25:15.713Z,3.45
2023-05-15T18:30:20.801Z,3.47
2023-05-15T18:35:24.893Z,3.55
2023-05-15T18:40:28.876Z,3.90
2023-05-15T18:45:33.859Z,4.00
2023-05-15T18:50:37.529Z,3.72
2023-05-15T18:55:41.132Z,5.13
2023-05-15T19:00:46.255Z,4.10
2023-05-15T19:05:50.050Z,4.57
2023-05-15T19:10:53.835Z,4.53
2023-05-15T19:15:58.760Z,5.03
2023-05-15T19:21:02.276Z,4.32
2023-05-15T19:26:05.977Z,4.82
2023-05-15T19:31:20.434Z,5.00
2023-05-15T19:36:34.275Z,4.97
2023-05-15T19:41:38.023Z,4.43
2023-05-15T19:46:43.130Z,4.63
2023-05-15T19:51:46.831Z,4.63
2023-05-15T19:56:50.119Z,5.15
2023-05-15T20:01:55.096Z,4.47
2023-05-15T20:06:58.713Z,4.60
2023-05-15T20:12:03.107Z,4.45
2023-05-15T20:17:08.152Z,5.22
2023-05-15T20:22:11.733Z,5.00
2023-05-15T20:27:15.337Z,5.35
2023-05-15T20:32:20.424Z,6.20
2023-05-15T20:37:27.973Z,5.97
2023-05-15T20:42:32.434Z,5.47
2023-05-15T20:47:37.442Z,6.35
2023-05-15T20:52:41.178Z,5.53
2023-05-15T20:57:45.182Z,5.15
2023-05-15T21:02:50.145Z,6.05
2023-05-15T21:07:53.720Z,6.07
2023-05-15T21:12:59.384Z,6.38
2023-05-15T21:18:04.888Z,5.45
2023-05-15T21:23:08.792Z,6.80
2023-05-15T21:28:12.307Z,6.18
2023-05-15T21:33:17.245Z,6.82
2023-05-15T21:38:21.026Z,7.18
2023-05-15T21:43:24.641Z,7.68
2023-05-15T21:48:29.258Z,6.53
2023-05-15T21:53:32.452Z,6.73
2023-05-15T21:58:35.667Z,7.60
2023-05-15T22:03:40.343Z,6.22
2023-05-15T22:08:43.813Z,7.87
2023-05-15T22:13:47.048Z,7.20
2023-05-15T22:18:54.032Z,11.40
2023-05-15T22:23:57.313Z,8.80
2023-05-15T22:29:00.706Z,13.82
2023-05-15T22:34:05.406Z,9.23
2023-05-15T22:39:08.935Z,6.97
2023-05-15T22:44:12.136Z,8.18
2023-05-15T22:49:19.295Z,7.32
2023-05-15T22:54:23.297Z,6.97
2023-05-15T22:59:27.133Z,8.95
2023-05-15T23:04:31.912Z,7.32
2023-05-15T23:09:35.671Z,7.82
2023-05-15T23:14:38.940Z,6.95
2023-05-15T23:19:43.934Z,8.00
2023-05-15T23:24:47.379Z,8.18
2023-05-15T23:29:50.981Z,6.82
2023-05-15T23:34:57.191Z,7.88
2023-05-15T23:40:00.543Z,7.15
2023-05-15T23:45:03.782Z,7.85
2023-05-15T23:50:09.758Z,7.80
2023-05-15T23:55:13.643Z,8.75
